Etusivu
METAR-TAF:

METAR-TAF

Lentoasemat :

Pihkova, Venäjä

Leveyspiiri: 57-47-06N, Pituuspiiri: 028-23-54E, korkeus merenpinnasta: 47 m

Tämänhetkinen sää

Tämä raportti tehtiin 43 minuuttia sitten, kello 20.00 UTC
Tuuli 6 kn idästä/koillisesta, vaihdellen pohjoisen/koillisen ja idän välillä
Lämpötila 12°C
Kosteus 82%
Ilmanpaine 1027 hPa
Näkyvyys: 9000 m

METAR: ULOO 222000Z AUTO 06003MPS 030V090 9000 // NCD 12/09 Q1027 RMK QFE766

Aika: 23:43 (20:43 UTC)

Sääennuste

Tämä raportti tehtiin 6 tuntia ja 44 minuuttia sitten, kello 13.59 UTC
Ennuste voimassa 22. päivästä klo 15 UTC - 22. päivään klo 24 UTC
Tuuli 6 kn idästä/kaakosta puuskistuen 16 kn:hen
Näkyvyys: 6000 m
Hajanaisia pilviä 2000 ft:n korkeudessa
Ajoittain
22. päivästä klo 20 UTC - 22. päivään klo 24 UTC
Näkyvyys: 2000 m
utua

TAF: ULOO 221359Z 2215/2224 11003G08MPS 6000 SCT020 TEMPO 2220/2224 2000 BR

Säähavainnot ja -ennusteet yli 4000 lentoasemalta (METAR- ja TAF-raportit).

Käytössä olevat sääasemat on merkitty karttaan keltaisilla ja punaisilla pisteillä.

Aseta hiiri pisteen päälle nähdäksesi sääaseman nimen.

Klikkaa sitten nähdäksesi säähavainnot ja -ennusteet.

Kartan vaihtaminen: klikkaa mustalla rastilla varustettuja vihreitä pisteitä, niin voit zoomata sisään; viivalla varustettua vihreää pistettä, niin voit zoomata ulos tai vihreitä nuolia, niin pääset viereisille kartoille.


METAR-TAF: